Flight Track Log - Related Links

Times and Time Zones

All times are in EDT time to prevent confusion due to time zone crossing. See the QFA723 flight status page for this flight to view local times or setup timezone preferences in your user account.

Time Position Orientation Groundspeed Altitude Reporting Facility
EDT Latitude Longitude Course Direction KTS MPH feet Rate Location/Type
Wed 09:05:17 PM -34.9420 138.5360 194° South 11 13  Level FlightAware ADS-B
Wed 09:05:47 PM -34.9430 138.5360 180° South 18 21 116 Level FlightAware ADS-B
Wed 09:06:12 PM -34.9450 138.5340 219° Southwest 22 25 129 Level FlightAware ADS-B
Wed 09:06:42 PM -34.9440 138.5310 292° West 19 22 141 Level FlightAware ADS-B
Wed 09:07:37 PM -34.9490 138.5260 219° Southwest 26 30 160 Level FlightAware ADS-B
Wed 09:08:17 PM -34.9530 138.5220 219° Southwest 27 31 212 Level FlightAware ADS-B
Wed 09:09:32 PM -34.9550 138.5230 158° South 4 5 277 Level FlightAware ADS-B
Wed 09:09:57 PM -34.9510 138.5290 51° Northeast 105 121 655 Level FlightAware ADS-B
Wed 09:10:27 PM -34.9360 138.5500 49° Northeast 149 171 600 1,467 Climbing FlightAware ADS-B
Wed 09:10:42 PM -34.9290 138.5600 50° Northeast 158 182 1,100 1,800 Climbing FlightAware ADS-B
Wed 09:11:07 PM -34.9150 138.5800 50° Northeast 188 216 1,800 2,291 Climbing FlightAware ADS-B
Wed 09:11:37 PM -34.8970 138.6060 50° Northeast 208 239 3,200 2,618 Climbing FlightAware ADS-B
Wed 09:12:02 PM -34.8790 138.6300 48° Northeast 233 268 4,200 2,327 Climbing FlightAware ADS-B
Wed 09:12:26 PM -34.8559 138.6593 48° Northeast 254 292 5,100 1,200 Climbing Aus ATC (RADAR)
Wed 09:12:32 PM -34.8530 138.6610 48° Northeast 272 313 4,800 -857 Descending FlightAware ADS-B
Wed 09:12:47 PM -34.8340 138.6690 19° North 299 344 4,800 -200 Level FlightAware ADS-B
Wed 09:13:02 PM -34.8140 138.6690 360° North 310 357 4,700 1,050 Descending FlightAware ADS-B
Wed 09:13:27 PM -34.7800 138.6510 336° Northwest 322 371 5,500 2,550 Climbing FlightAware ADS-B
Wed 09:13:42 PM -34.7640 138.6310 314° West 324 373 6,400 3,600 Climbing FlightAware ADS-B
Wed 09:13:57 PM -34.7540 138.6060 296° West 337 388 7,300 2,945 Climbing FlightAware ADS-B
Wed 09:14:37 PM -34.7630 138.5290 262° West 366 421 9,100 3,619 Climbing FlightAware ADS-B
Wed 09:15:00 PM -34.7873 138.4791 262° West 366 421 11,100 3,067 Climbing Aus ATC (RADAR)
Wed 09:15:22 PM -34.7970 138.4450 262° West 372 428 11,400 1,660 Climbing FlightAware ADS-B
Wed 09:15:47 PM -34.7880 138.3940 282° West 372 428 12,400 2,829 Climbing FlightAware ADS-B
Wed 09:16:32 PM -34.7530 138.3070 296° West 387 445 14,700 3,205 Climbing FlightAware ADS-B
Wed 09:17:00 PM -34.7269 138.2405 296° West 395 455 16,300 2,550 Climbing Aus ATC (RADAR)
Wed 09:17:12 PM -34.7220 138.2260 296° West 402 463 16,400 1,778 Climbing FlightAware ADS-B
Wed 09:17:27 PM -34.7060 138.1970 304° West 403 464 17,100 2,800 Climbing FlightAware ADS-B
Wed 09:17:42 PM -34.6840 138.1760 322° Northwest 401 461 17,800 2,618 Climbing FlightAware ADS-B
Wed 09:18:22 PM -34.6130 138.1460 341° North 410 472 19,500 2,923 Climbing FlightAware ADS-B
Wed 09:19:00 PM -34.5358 138.1145 341° North 412 474 21,600 2,400 Climbing Aus ATC (RADAR)
Wed 09:19:02 PM -34.5410 138.1170 341° North 408 470 21,100 1,277 Descending FlightAware ADS-B
Wed 09:19:47 PM -34.4580 138.0830 341° North 423 487 22,600 2,137 Climbing FlightAware ADS-B
Wed 09:20:15 PM -34.3942 138.0577 341° North 437 503 23,700 1,500 Climbing Aus ATC (RADAR)
Wed 09:20:27 PM -34.3800 138.0520 341° North 438 504 23,600 1,263 Descending FlightAware ADS-B
Wed 09:21:12 PM -34.2910 138.0160 342° North 457 526 24,900 2,029 Climbing FlightAware ADS-B
Wed 09:21:35 PM -34.2343 137.9938 342° North 459 528 25,900 1,650 Climbing Aus ATC (RADAR)
Wed 09:21:52 PM -34.2100 137.9840 342° North 457 526 26,000 1,527 Climbing FlightAware ADS-B
Wed 09:22:30 PM -34.1210 137.9491 342° North 470 541 27,300 1,350 Climbing Aus ATC (RADAR)
Wed 09:22:32 PM -34.1270 137.9510 342° North 474 545 26,900 1,333 Descending FlightAware ADS-B
Wed 09:23:15 PM -34.0271 137.9117 342° North 474 545 28,300 1,467 Climbing Aus ATC (RADAR)
Wed 09:23:17 PM -34.0320 137.9140 342° North 474 545 28,000  Descending FlightAware ADS-B
Wed 09:23:50 PM -33.9540 137.8841 342° North 474 545 28,300  Climbing Aus ATC (RADAR)
Wed 09:23:57 PM -33.9500 137.8820 342° North 473 544 28,000 -383 Descending FlightAware ADS-B
Wed 09:24:37 PM -33.8670 137.8490 342° North 471 542 28,000 310 Level FlightAware ADS-B
Wed 09:24:55 PM -33.8192 137.8307 342° North 471 542 28,300  Climbing Aus ATC (RADAR)
Wed 09:25:22 PM -33.7750 137.8120 342° North 462 532 28,000  Descending FlightAware ADS-B
Wed 09:25:59 PM -33.6852 137.7771 342° North 469 540 28,300  Climbing Aus ATC (RADAR)
Wed 09:26:02 PM -33.6900 137.7790 342° North 462 532 28,000  Descending FlightAware ADS-B
Wed 09:26:24 PM -33.6334 137.7573 342° North 470 541 28,300  Climbing Aus ATC (RADAR)
Wed 09:26:47 PM -33.5990 137.7430 342° North 471 542 28,000 -310 Descending FlightAware ADS-B
Wed 09:27:22 PM -33.5330 137.7170 342° North 470 541 28,000  Level FlightAware ADS-B
Wed 09:28:12 PM -33.4180 137.6730 342° North 471 542 28,000 207 Level FlightAware ADS-B
Wed 09:28:49 PM -33.3335 137.6393 342° North 471 542 28,300  Climbing Aus ATC (RADAR)
Wed 09:29:07 PM -33.3200 137.6330 342° North 472 543 28,000  Descending FlightAware ADS-B
Wed 09:29:39 PM -33.2294 137.5995 342° North 473 544 28,300  Climbing Aus ATC (RADAR)
Wed 09:29:47 PM -33.2500 137.6040 342° North 472 543 28,000  Descending FlightAware ADS-B
Wed 09:30:04 PM -33.1773 137.5795 342° North 474 545 28,300  Climbing Aus ATC (RADAR)
Wed 09:30:42 PM -33.1100 137.5510 342° North 472 543 28,000 -231 Descending FlightAware ADS-B
Wed 09:31:22 PM -33.0390 137.5230 342° North 472 543 28,000 316 Level FlightAware ADS-B
Wed 09:31:39 PM -32.9804 137.5033 342° North 471 542 28,300  Climbing Aus ATC (RADAR)
Wed 09:32:02 PM -32.9690 137.4940 342° North 472 543 28,000  Descending FlightAware ADS-B
Wed 09:32:05 PM -32.9287 137.4831 342° North 471 542 28,300 486 Climbing Aus ATC (RADAR)
Wed 09:32:39 PM -32.8558 137.4562 342° North 472 543 28,300 -383 Level Aus ATC (RADAR)
Wed 09:32:52 PM -32.8820 137.4580 342° North 472 543 28,000  Descending FlightAware ADS-B
Wed 09:33:24 PM -32.7634 137.4192 342° North 469 540 28,300  Climbing Aus ATC (RADAR)
Wed 09:33:32 PM -32.7500 137.4140 342° North 467 537 28,000  Descending FlightAware ADS-B
Wed 09:33:59 PM -32.6910 137.3929 342° North 467 537 28,300  Climbing Aus ATC (RADAR)
Wed 09:34:12 PM -32.6830 137.3880 342° North 467 537 28,000  Descending FlightAware ADS-B
Wed 09:34:49 PM -32.5869 137.3540 342° North 470 541 28,300  Climbing Aus ATC (RADAR)
Wed 09:34:52 PM -32.6130 137.3610 342° North 467 537 28,000  Descending FlightAware ADS-B
Wed 09:35:14 PM -32.5359 137.3334 342° North 467 537 28,300  Climbing Aus ATC (RADAR)
Wed 09:35:32 PM -32.5440 137.3340 342° North 467 537 28,000 -310 Descending FlightAware ADS-B
Wed 09:36:12 PM -32.4740 137.3070 342° North 467 537 28,000 269 Level FlightAware ADS-B
Wed 09:36:39 PM -32.3589 137.2682 342° North 474 545 28,300  Climbing Aus ATC (RADAR)
Wed 09:37:02 PM -32.3860 137.2740 342° North 467 537 28,000  Descending FlightAware ADS-B
Wed 09:37:39 PM -32.2358 137.2160 342° North 472 543 28,300 222 Climbing Aus ATC (RADAR)
Wed 09:38:23 PM -32.1408 137.1837 344° North 473 544 28,300  Level Aus ATC (RADAR)
Wed 09:38:58 PM -32.0687 137.1546 341° North 472 543 28,300 -71 Level Aus ATC (RADAR)
Wed 09:39:48 PM -31.9650 137.1145 342° North 471 542 28,200  Descending Aus ATC (RADAR)
Wed 09:41:38 PM -31.7358 137.0286 342° North 472 543 28,300 48 Climbing Aus ATC (RADAR)
Wed 09:41:53 PM -31.7043 137.0173 343° North 473 544 28,300  Level Aus ATC (RADAR)
Wed 09:42:33 PM -31.6202 136.9888 344° North 473 544 28,300  Level Aus ATC (RADAR)
Wed 09:43:19 PM -31.5263 136.9532 342° North 474 545 28,300  Level Aus ATC (RADAR)
Wed 09:43:53 PM -31.4543 136.9248 341° North 470 541 28,300  Level Aus ATC (RADAR)
Wed 09:44:23 PM -31.3918 136.9017 342° North 471 542 28,300  Level Aus ATC (RADAR)
Wed 09:45:04 PM -31.3111 136.8661 339° North 470 541 28,300  Level Aus ATC (RADAR)
Wed 09:46:13 PM -31.1638 136.8216 346° North 470 541 28,300 281 Level Aus ATC (RADAR)
Wed 09:51:22 PM -30.6107 136.6012 341° North 28,000 291 Descending Aus ATC (Calculated)
Wed 09:53:00 PM -30.4312 136.5252 341° North  Level Estimated
Wed 09:53:58 PM -30.3224 136.4874 341° North 28,000  Level Aus ATC (Calculated)
Wed 09:54:00 PM -30.3204 136.4823 342° North  Level FlightAware Approximate
Wed 09:55:00 PM -30.2080 136.4424 341° North  Level FlightAware Approximate
Wed 09:56:00 PM -30.0973 136.3990 341° North  Level FlightAware Approximate
Wed 09:56:22 PM -30.0052 136.3630 341° North 28,000  Level Aus ATC (Calculated)
Wed 09:58:00 PM -29.8243 136.2924 341° North  Level FlightAware Approximate
Wed 09:58:22 PM -29.7672 136.2702 341° North 28,000  Level Aus ATC (Calculated)
Wed 09:59:03 PM -29.6878 136.2393 341° North 28,000 472 Level Aus ATC (Calculated)
Wed 10:00:07 PM -29.5538 136.1890 341° North 28,000 488 Level Aus ATC (Calculated)
Wed 10:00:41 PM -29.4869 136.1638 341° North 28,000 515 Level Aus ATC (Calculated)
Wed 10:01:36 PM -29.3529 136.1137 341° North 28,000 531 Level Aus ATC (Calculated)
Wed 10:02:00 PM -29.6332 136.2188 162° South  Level FlightAware Approximate
Wed 10:02:16 PM -29.2859 136.0887 341° North 28,000  Level Aus ATC (Calculated)
Wed 10:04:00 PM -29.4767 136.1600 162° South  Level FlightAware Approximate
Wed 10:04:41 PM -29.0178 135.9889 341° North 28,000  Level Aus ATC (Calculated)
Wed 10:05:00 PM -29.5868 136.2013 162° South  Level FlightAware Approximate
Wed 10:05:25 PM -28.9508 135.9641 341° North 28,000  Level Aus ATC (Calculated)
Wed 10:05:36 PM -28.8837 135.9393 341° North 28,000 708 Level Aus ATC (Calculated)
Wed 10:07:00 PM -29.0380 135.9964 162° South  Level FlightAware Approximate
Wed 10:08:00 PM -29.1481 136.0374 162° South  Level FlightAware Approximate
Wed 10:09:00 PM -29.0394 135.9917 342° North  Level Estimated
Wed 10:09:30 PM -28.4143 135.7663 341° North 28,000  Level Aus ATC (Calculated)
Wed 10:11:00 PM -28.2490 135.7058 342° North  Level FlightAware Approximate
Wed 10:12:00 PM -28.1388 135.6656 342° North  Level FlightAware Approximate
Wed 10:13:00 PM -28.0285 135.6254 342° North  Level FlightAware Approximate
Wed 10:14:00 PM -27.9182 135.5853 342° North  Level FlightAware Approximate
Wed 10:14:30 PM -27.8104 135.5462 339° North 28,000  Level Aus ATC (Calculated)
Wed 10:15:00 PM -27.8080 135.5454 342° North  Level FlightAware Approximate
Wed 10:16:00 PM -27.6450 135.4864 342° North  Level FlightAware Approximate
Wed 10:16:35 PM -27.6090 135.4734 338° Northwest 28,000  Level Aus ATC (Calculated)
Wed 10:17:00 PM -27.5347 135.4466 342° North  Level FlightAware Approximate
Wed 10:18:00 PM -27.4528 135.4171 342° North  Level FlightAware Approximate
Wed 10:19:00 PM -27.5631 135.4568 162° South  Level FlightAware Approximate
Wed 10:19:32 PM -27.2280 135.3000 342° North 426 490 38,000  Level FlightAware ADS-B
Wed 10:20:00 PM -27.4528 135.4171 342° North  Level FlightAware Approximate
Wed 10:20:17 PM -27.1450 135.2640 339° North 427 491 38,000  Level FlightAware ADS-B
Wed 10:20:52 PM -27.0800 135.2360 339° North 427 491 38,000  Level FlightAware ADS-B
Wed 10:21:30 PM -27.0021 135.2047 241° Southwest 28,000  Descending Aus ATC (Calculated)
Wed 10:21:37 PM -27.0030 135.2030 339° North 428 493 38,000 9,677 Climbing FlightAware ADS-B
Wed 10:22:14 PM -26.9250 135.1700 339° North 28,000  Descending Aus ATC (Calculated)
Wed 10:22:32 PM -26.8950 135.1570 339° North 429 494 38,000 9,524 Climbing FlightAware ADS-B
Wed 10:23:17 PM -26.8100 135.1210 339° North 429 494 38,000  Level FlightAware ADS-B
Wed 10:23:57 PM -26.7380 135.0910 340° North 430 495 38,000  Level FlightAware ADS-B
Wed 10:24:37 PM -26.6690 135.0610 339° North 430 495 38,000  Level FlightAware ADS-B
Wed 10:25:17 PM -26.5890 135.0280 340° North 431 496 38,000  Level FlightAware ADS-B
Wed 10:26:02 PM -26.5080 134.9940 339° North 430 495 38,000  Level FlightAware ADS-B
Wed 10:26:47 PM -26.4180 134.9560 339° North 432 497 38,000  Level FlightAware ADS-B
Wed 10:27:13 PM -26.3365 134.9215 160° South 28,000  Descending Aus ATC (Calculated)
Wed 10:27:22 PM -26.3550 134.9290 339° North 433 498 38,000 11,111 Climbing FlightAware ADS-B
Wed 10:27:56 PM -26.2776 134.8967 336° Northwest 28,000  Descending Aus ATC (Calculated)
Wed 10:28:07 PM -26.2700 134.8930 339° North 432 497 38,000 10,714 Climbing FlightAware ADS-B
Wed 10:28:52 PM -26.1840 134.8580 339° North 432 497 38,000  Level FlightAware ADS-B
Wed 10:29:27 PM -26.1240 134.8320 339° North 432 497 38,000  Level FlightAware ADS-B
Wed 10:29:59 PM -26.0420 134.7981 339° North 28,000  Descending Aus ATC (Calculated)
Wed 10:30:17 PM -26.0250 134.7910 340° North 431 496 38,000 9,524 Climbing FlightAware ADS-B
Wed 10:31:02 PM -25.9420 134.7570 340° North 431 496 38,000  Level FlightAware ADS-B
Wed 10:31:18 PM -25.8653 134.7244 340° North 28,000  Descending Aus ATC (Calculated)
Wed 10:31:57 PM -25.8400 134.7140 339° North 429 494 38,000 7,595 Climbing FlightAware ADS-B
Wed 10:32:37 PM -25.7690 134.6840 339° North 429 494 38,000  Level FlightAware ADS-B
Wed 10:33:17 PM -25.6910 134.6520 340° North 429 494 38,000  Level FlightAware ADS-B
Wed 10:33:24 PM -25.6885 134.6509 340° North 28,000  Descending Aus ATC (Calculated)
Wed 10:34:02 PM -25.6080 134.6180 340° North 428 493 38,000 7,692 Climbing FlightAware ADS-B
Wed 10:34:42 PM -25.5320 134.5860 339° North 428 493 38,000 -706 Level FlightAware ADS-B
Wed 10:35:18 PM -25.4528 134.5533 327° Northwest 28,000 -1,333 Descending Aus ATC (Calculated)
Wed 10:35:27 PM -25.4510 134.5520 339° North 425 489 37,000 8,082 Climbing FlightAware ADS-B
Wed 10:36:07 PM -25.3720 134.5200 339° North 438 504 34,600 -3,375 Descending FlightAware ADS-B
Wed 10:36:10 PM -25.3349 134.5046 340° North 28,000 -3,150 Descending Aus ATC (Calculated)
Wed 10:36:47 PM -25.2990 134.4900 339° North 447 514 32,500 2,260 Climbing FlightAware ADS-B
Wed 10:37:08 PM -25.2169 134.4560 156° South 28,000 -2,400 Descending Aus ATC (Calculated)
Wed 10:37:27 PM -25.2230 134.4590 340° North 437 503 30,900 1,125 Climbing FlightAware ADS-B
Wed 10:38:12 PM -25.1360 134.4230 340° North 426 490 29,200 -2,200 Descending FlightAware ADS-B
Wed 10:38:13 PM -25.0990 134.4075 339° North 28,000 -2,133 Descending Aus ATC (Calculated)
Wed 10:38:57 PM -25.0570 134.3900 340° North 415 478 27,600 -1,357 Descending FlightAware ADS-B
Wed 10:39:03 PM -25.0400 134.3833 340° North 2,500 -2,250 Descending Aus ATC (Calculated)
Wed 10:39:37 PM -24.9850 134.3610 340° North 406 467 26,100 17,919 Climbing FlightAware ADS-B
Wed 10:40:17 PM -24.9110 134.3300 339° North 398 458 24,600 -2,188 Descending FlightAware ADS-B
Wed 10:41:02 PM -24.8370 134.3000 340° North 389 448 23,000 -2,118 Descending FlightAware ADS-B
Wed 10:41:18 PM -24.8063 134.2878 340° North 2,500 -2,100 Descending Aus ATC (Calculated)
Wed 10:41:42 PM -24.7690 134.2730 340° North 383 441 21,600 16,594 Climbing FlightAware ADS-B
Wed 10:41:58 PM -24.8063 134.2878 340° North 2,500 -2,100 Descending Aus ATC (Calculated)
Wed 10:42:22 PM -24.7030 134.2460 340° North 376 433 20,200 14,087 Climbing FlightAware ADS-B
Wed 10:43:07 PM -24.6290 134.2160 340° North 368 423 18,700 -2,047 Descending FlightAware ADS-B
Wed 10:43:42 PM -24.6504 134.2244 340° North 2,500 -2,100 Descending Aus ATC (Calculated)
Wed 10:43:47 PM -24.5650 134.1900 340° North 363 418 17,300 16,080 Climbing FlightAware ADS-B
Wed 10:44:32 PM -24.4950 134.1610 339° North 358 412 15,900 -1,906 Descending FlightAware ADS-B
Wed 10:45:12 PM -24.4350 134.1370 340° North 351 404 14,600 -1,875 Descending FlightAware ADS-B
Wed 10:45:18 PM -24.4945 134.1611 339° North 2,500 -1,800 Descending Aus ATC (Calculated)
Wed 10:45:52 PM -24.3750 134.1120 339° North 344 396 13,400 7,215 Climbing FlightAware ADS-B
Wed 10:46:37 PM -24.3386 134.0980 340° North 2,500 -1,867 Descending Aus ATC (Calculated)
Wed 10:46:37 PM -24.3080 134.0860 339° North 337 388 12,000 12,300 Climbing FlightAware ADS-B
Wed 10:47:17 PM -24.2490 134.0620 339° North 329 379 10,700 -1,482 Descending FlightAware ADS-B
Wed 10:48:02 PM -24.1920 134.0230 328° Northwest 308 354 9,900 -1,114 Descending FlightAware ADS-B
Wed 10:48:27 PM -24.1630 133.9990 323° Northwest 299 344 9,400 -1,200 Descending FlightAware ADS-B
Wed 10:48:42 PM -24.1480 133.9860 322° Northwest 298 343 9,100 -1,467 Descending FlightAware ADS-B
Wed 10:49:12 PM -24.1150 133.9580 322° Northwest 294 338 8,300 -1,527 Descending FlightAware ADS-B
Wed 10:49:37 PM -24.0900 133.9360 321° Northwest 292 336 7,700 -1,418 Descending FlightAware ADS-B
Wed 10:49:37 PM -24.1047 134.0036 299° West 2,500 -1,400 Descending Aus ATC (Calculated)
Wed 10:50:07 PM -24.0550 133.9070 323° Northwest 287 330 7,000 4,000 Climbing FlightAware ADS-B
Wed 10:50:37 PM -24.0210 133.8910 323° Northwest 272 313 6,500 -873 Descending FlightAware ADS-B
Wed 10:51:02 PM -23.9930 133.8790 339° North 258 297 6,200 -655 Descending FlightAware ADS-B
Wed 10:51:32 PM -23.9600 133.8660 340° North 239 275 5,900 -436 Descending FlightAware ADS-B
Wed 10:51:57 PM -23.9340 133.8560 341° North 221 254 5,800 -764 Descending FlightAware ADS-B
Wed 10:52:27 PM -23.9080 133.8460 341° North 211 243 5,200 -1,200 Descending FlightAware ADS-B
Wed 10:52:36 PM -23.7927 133.8782 203° Southwest 2,500 -1,200 Descending Aus ATC (Calculated)
Wed 10:52:36 PM -23.7927 133.8782 203° Southwest 2,500 8,250 Level Aus ATC (Calculated)
Wed 10:52:52 PM -23.8840 133.8360 339° North 206 237 4,700 2,348 Climbing FlightAware ADS-B
Wed 10:53:22 PM -23.8580 133.8250 339° North 197 227 4,300 -900 Descending FlightAware ADS-B
Wed 10:53:52 PM -23.8320 133.8150 341° North 194 223 3,800 -960 Descending FlightAware ADS-B
Wed 10:54:12 PM -23.8140 133.8100 346° North 186 214 3,500 -873 Descending FlightAware ADS-B
Wed 10:54:47 PM -23.7900 133.8210 23° Northeast 163 188 3,000 -840 Descending FlightAware ADS-B
Wed 10:55:02 PM -23.7840 133.8320 59° Northeast 158 182 2,800 -720 Descending FlightAware ADS-B
Wed 10:55:12 PM -23.7820 133.8390 73° East 151 174 2,700 -600 Descending FlightAware ADS-B
Wed 10:55:22 PM -23.7810 133.8470 82° East 142 163 2,600 -800 Descending FlightAware ADS-B
Wed 10:55:42 PM -23.7840 133.8610 103° East 143 165 2,300 -857 Descending FlightAware ADS-B
Wed 10:55:57 PM -23.7880 133.8690 119° Southeast 145 167 2,100 -800 Descending FlightAware ADS-B

Login

Don't have an account? Register now (free) for customized features, flight alerts, and more!